Time,TemperatureF,DewpointF,PressureIn,WindDirection,WindDirectionDegrees,WindSpeedMPH,WindSpeedGustMPH,Humidity,HourlyPrecipIn,Conditions,Clouds,dailyrainin,SoftwareType,DateUTC
2013-06-30 00:02:00,64.0,61.0,29.82,NNW,340,7.0,-999.0,88,-99.99,,,-99.99,,2013-06-30 05:02:00,
2013-06-30 00:11:00,64.0,61.0,29.82,NNW,340,5.0,-999.0,88,-99.99,,,-99.99,,2013-06-30 05:11:00,
2013-06-30 00:22:00,64.0,63.0,29.82,NNW,340,6.0,-999.0,93,-99.99,,,-99.99,,2013-06-30 05:22:00,
2013-06-30 00:33:00,64.0,61.0,29.82,North,350,5.0,-999.0,88,-99.99,,,-99.99,,2013-06-30 05:33:00,
2013-06-30 00:43:00,64.0,61.0,29.82,NNW,340,6.0,-999.0,88,-99.99,,,-99.99,,2013-06-30 05:43:00,
2013-06-30 00:52:00,64.0,61.0,29.82,NNW,340,5.0,-999.0,88,-99.99,,,-99.99,,2013-06-30 05:52:00,
2013-06-30 01:01:00,64.0,61.0,29.82,NNW,330,8.0,-999.0,88,-99.99,,,-99.99,,2013-06-30 06:01:00,
2013-06-30 01:12:00,64.0,61.0,29.83,NNW,340,7.0,-999.0,88,-99.99,,,-99.99,,2013-06-30 06:12:00,
2013-06-30 01:22:00,64.0,61.0,29.82,NNW,340,6.0,-999.0,88,-99.99,,,-99.99,,2013-06-30 06:22:00,
2013-06-30 01:33:00,64.0,61.0,29.83,NNW,330,5.0,-999.0,88,-99.99,,,-99.99,,2013-06-30 06:33:00,
2013-06-30 01:43:00,64.0,61.0,29.83,NNW,330,6.0,-999.0,88,-99.99,,,-99.99,,2013-06-30 06:43:00,
2013-06-30 01:53:00,64.0,61.0,29.83,NNW,340,5.0,-999.0,88,-99.99,,,-99.99,,2013-06-30 06:53:00,
2013-06-30 02:02:00,64.0,61.0,29.83,NNW,340,8.0,-999.0,88,-99.99,,,-99.99,,2013-06-30 07:02:00,
2013-06-30 02:12:00,64.0,61.0,29.83,NNW,340,7.0,-999.0,88,-99.99,,,-99.99,,2013-06-30 07:12:00,
2013-06-30 02:22:00,64.0,63.0,29.83,NNW,340,5.0,-999.0,93,-99.99,,,-99.99,,2013-06-30 07:22:00,
2013-06-30 02:33:00,64.0,63.0,29.83,North,350,6.0,-999.0,93,-99.99,,,-99.99,,2013-06-30 07:33:00,
2013-06-30 02:44:00,64.0,63.0,29.83,NNW,340,7.0,-999.0,93,-99.99,,,-99.99,,2013-06-30 07:44:00,
2013-06-30 02:53:00,64.0,63.0,29.83,NNW,330,7.0,-999.0,93,-99.99,,,-99.99,,2013-06-30 07:53:00,
2013-06-30 03:02:00,64.0,63.0,29.83,NNW,340,6.0,-999.0,93,-99.99,,,-99.99,,2013-06-30 08:02:00,
2013-06-30 03:11:00,64.0,61.0,29.83,North,350,3.0,-999.0,88,-99.99,,,-99.99,,2013-06-30 08:11:00,
2013-06-30 03:22:00,64.0,63.0,29.83,NNW,330,8.0,-999.0,93,-99.99,,,-99.99,,2013-06-30 08:22:00,
2013-06-30 03:33:00,64.0,61.0,29.83,NNW,330,7.0,-999.0,88,-99.99,,,-99.99,,2013-06-30 08:33:00,
2013-06-30 03:42:00,64.0,61.0,29.83,NNW,330,7.0,-999.0,88,-99.99,,,-99.99,,2013-06-30 08:42:00,
2013-06-30 03:53:00,64.0,61.0,29.84,NNW,340,5.0,-999.0,88,-99.99,,,-99.99,,2013-06-30 08:53:00,
2013-06-30 04:01:00,64.0,61.0,29.84,NNW,330,5.0,-999.0,88,-99.99,,,-99.99,,2013-06-30 09:01:00,
2013-06-30 04:11:00,64.0,61.0,29.85,NNW,340,3.0,-999.0,88,-99.99,,,-99.99,,2013-06-30 09:11:00,
2013-06-30 04:23:00,64.0,61.0,29.85,NW,320,5.0,-999.0,88,-99.99,,,-99.99,,2013-06-30 09:23:00,
2013-06-30 04:33:00,64.0,61.0,29.85,NNW,330,6.0,-999.0,88,-99.99,,,-99.99,,2013-06-30 09:33:00,
2013-06-30 04:43:00,64.0,61.0,29.85,NNW,330,6.0,-999.0,88,-99.99,,,-99.99,,2013-06-30 09:43:00,
2013-06-30 04:52:00,64.0,61.0,29.85,NNW,330,7.0,-999.0,88,-99.99,,,-99.99,,2013-06-30 09:52:00,
2013-06-30 05:02:00,64.0,61.0,29.85,NNW,330,7.0,-999.0,88,-99.99,,,-99.99,,2013-06-30 10:02:00,
2013-06-30 05:11:00,64.0,61.0,29.85,NW,320,6.0,-999.0,88,-99.99,,,-99.99,,2013-06-30 10:11:00,
2013-06-30 05:22:00,64.0,61.0,29.86,NNW,330,6.0,-999.0,88,-99.99,,,-99.99,,2013-06-30 10:22:00,
2013-06-30 05:33:00,64.0,61.0,29.86,NNW,330,6.0,-999.0,88,-99.99,,,-99.99,,2013-06-30 10:33:00,
2013-06-30 05:42:00,64.0,61.0,29.86,NNW,330,6.0,-999.0,88,-99.99,,,-99.99,,2013-06-30 10:42:00,
2013-06-30 05:53:00,64.0,61.0,29.87,NNW,330,5.0,-999.0,88,-99.99,,,-99.99,,2013-06-30 10:53:00,
2013-06-30 06:02:00,64.0,61.0,29.87,NW,320,6.0,-999.0,88,-99.99,,,-99.99,,2013-06-30 11:02:00,
2013-06-30 06:11:00,64.0,61.0,29.87,NNW,330,6.0,-999.0,88,-99.99,,,-99.99,,2013-06-30 11:11:00,
2013-06-30 06:21:00,64.0,61.0,29.87,NNW,330,7.0,-999.0,88,-99.99,,,-99.99,,2013-06-30 11:21:00,
2013-06-30 06:33:00,64.0,61.0,29.87,NNW,330,6.0,-999.0,88,-99.99,,,-99.99,,2013-06-30 11:33:00,
2013-06-30 06:43:00,64.0,61.0,29.87,North,350,5.0,-999.0,88,-99.99,,,-99.99,,2013-06-30 11:43:00,
2013-06-30 06:53:00,64.0,61.0,29.87,North,350,5.0,-999.0,88,-99.99,,,-99.99,,2013-06-30 11:53:00,
2013-06-30 07:01:00,64.0,61.0,29.87,NNW,340,5.0,-999.0,88,-99.99,,,-99.99,,2013-06-30 12:01:00,
2013-06-30 07:11:00,64.0,61.0,29.87,North,350,3.0,-999.0,88,-99.99,,,-99.99,,2013-06-30 12:11:00,
2013-06-30 07:24:00,64.0,61.0,29.88,North,350,3.0,-999.0,88,-99.99,,,-99.99,,2013-06-30 12:24:00,
2013-06-30 07:33:00,64.0,61.0,29.88,North,350,5.0,-999.0,88,-99.99,,,-99.99,,2013-06-30 12:33:00,
2013-06-30 07:43:00,66.0,61.0,29.88,NNW,340,5.0,-999.0,82,-99.99,,,-99.99,,2013-06-30 12:43:00,
2013-06-30 07:52:00,66.0,63.0,29.88,North,360,7.0,-999.0,88,-99.99,,,-99.99,,2013-06-30 12:52:00,
2013-06-30 08:02:00,68.0,63.0,29.88,North,350,5.0,-999.0,82,-99.99,,,-99.99,,2013-06-30 13:02:00,
2013-06-30 08:12:00,68.0,61.0,29.88,North,10,8.0,-999.0,77,-99.99,,,-99.99,,2013-06-30 13:12:00,
2013-06-30 08:22:00,68.0,61.0,29.89,North,360,8.0,-999.0,77,-99.99,,,-99.99,,2013-06-30 13:22:00,
2013-06-30 08:33:00,68.0,61.0,29.89,North,350,7.0,-999.0,77,-99.99,,,-99.99,,2013-06-30 13:33:00,
2013-06-30 08:43:00,70.0,61.0,29.90,NNE,30,8.0,-999.0,73,-99.99,,,-99.99,,2013-06-30 13:43:00,
2013-06-30 08:53:00,70.0,61.0,29.90,North,10,12.0,17.0,73,-99.99,,,-99.99,,2013-06-30 13:53:00,
2013-06-30 09:02:00,70.0,61.0,29.91,North,350,10.0,17.0,73,-99.99,,,-99.99,,2013-06-30 14:02:00,
2013-06-30 09:11:00,70.0,59.0,29.91,NNE,20,7.0,-999.0,68,-99.99,,,-99.99,,2013-06-30 14:11:00,
2013-06-30 09:22:00,72.0,59.0,29.91,NNW,340,9.0,-999.0,64,-99.99,,,-99.99,,2013-06-30 14:22:00,
2013-06-30 09:33:00,72.0,59.0,29.91,North,360,9.0,-999.0,64,-99.99,,,-99.99,,2013-06-30 14:33:00,
2013-06-30 09:44:00,70.0,59.0,29.91,North,350,6.0,-999.0,68,-99.99,,,-99.99,,2013-06-30 14:44:00,
2013-06-30 09:52:00,70.0,59.0,29.91,North,350,5.0,17.0,68,-99.99,,,-99.99,,2013-06-30 14:52:00,
2013-06-30 10:02:00,70.0,59.0,29.91,NNE,30,6.0,17.0,68,-99.99,,,-99.99,,2013-06-30 15:02:00,
2013-06-30 10:12:00,72.0,57.0,29.91,NNE,30,12.0,16.0,60,-99.99,,,-99.99,,2013-06-30 15:12:00,
2013-06-30 10:22:00,72.0,57.0,29.91,North,350,10.0,16.0,60,-99.99,,,-99.99,,2013-06-30 15:22:00,
2013-06-30 10:34:00,72.0,59.0,29.91,North,360,8.0,16.0,64,-99.99,,,-99.99,,2013-06-30 15:34:00,
2013-06-30 10:44:00,72.0,57.0,29.92,North,350,9.0,16.0,60,-99.99,,,-99.99,,2013-06-30 15:44:00,
2013-06-30 10:52:00,72.0,57.0,29.92,North,360,10.0,16.0,60,-99.99,,,-99.99,,2013-06-30 15:52:00,
2013-06-30 11:01:00,73.0,59.0,29.92,North,350,7.0,-999.0,60,-99.99,,,-99.99,,2013-06-30 16:01:00,
2013-06-30 11:11:00,72.0,57.0,29.92,North,360,7.0,16.0,60,-99.99,,,-99.99,,2013-06-30 16:11:00,
2013-06-30 11:21:00,72.0,57.0,29.92,North,350,8.0,-999.0,60,-99.99,,,-99.99,,2013-06-30 16:21:00,
2013-06-30 11:34:00,72.0,59.0,29.93,North,350,8.0,16.0,64,-99.99,,,-99.99,,2013-06-30 16:34:00,
2013-06-30 11:43:00,72.0,59.0,29.93,North,360,8.0,-999.0,64,-99.99,,,-99.99,,2013-06-30 16:43:00,
2013-06-30 11:53:00,73.0,59.0,29.93,North,350,9.0,-999.0,60,-99.99,,,-99.99,,2013-06-30 16:53:00,
2013-06-30 12:01:00,72.0,59.0,29.93,North,350,7.0,16.0,64,-99.99,,,-99.99,,2013-06-30 17:01:00,
2013-06-30 12:11:00,75.0,59.0,29.93,North,350,8.0,-999.0,57,-99.99,,,-99.99,,2013-06-30 17:11:00,
2013-06-30 12:23:00,73.0,59.0,29.93,North,350,8.0,-999.0,60,-99.99,,,-99.99,,2013-06-30 17:23:00,
2013-06-30 12:33:00,75.0,59.0,29.93,NNW,340,10.0,16.0,57,-99.99,,,-99.99,,2013-06-30 17:33:00,
2013-06-30 12:43:00,75.0,61.0,29.93,North,350,10.0,17.0,60,-99.99,,,-99.99,,2013-06-30 17:43:00,
2013-06-30 12:52:00,73.0,59.0,29.93,North,360,9.0,17.0,60,-99.99,,,-99.99,,2013-06-30 17:52:00,
2013-06-30 13:01:00,75.0,59.0,29.93,North,360,8.0,-999.0,57,-99.99,,,-99.99,,2013-06-30 18:01:00,
2013-06-30 13:12:00,75.0,59.0,29.92,NNW,330,12.0,17.0,57,-99.99,,,-99.99,,2013-06-30 18:12:00,
2013-06-30 13:22:00,75.0,59.0,29.93,North,350,9.0,17.0,57,-99.99,,,-99.99,,2013-06-30 18:22:00,
2013-06-30 13:33:00,75.0,59.0,29.92,North,10,6.0,-999.0,57,-99.99,,,-99.99,,2013-06-30 18:33:00,
2013-06-30 13:43:00,73.0,57.0,29.92,North,10,7.0,-999.0,56,-99.99,,,-99.99,,2013-06-30 18:43:00,
2013-06-30 13:53:00,73.0,59.0,29.92,North,350,5.0,16.0,60,-99.99,,,-99.99,,2013-06-30 18:53:00,
2013-06-30 14:01:00,77.0,57.0,29.92,North,350,10.0,16.0,50,-99.99,,,-99.99,,2013-06-30 19:01:00,
2013-06-30 14:11:00,77.0,59.0,29.92,North,350,6.0,-999.0,53,-99.99,,,-99.99,,2013-06-30 19:11:00,
2013-06-30 14:22:00,75.0,57.0,29.92,North,360,8.0,-999.0,53,-99.99,,,-99.99,,2013-06-30 19:22:00,
2013-06-30 14:32:00,73.0,59.0,29.92,North,350,9.0,-999.0,60,-99.99,,,-99.99,,2013-06-30 19:32:00,
2013-06-30 14:43:00,75.0,59.0,29.92,North,350,8.0,-999.0,57,-99.99,,,-99.99,,2013-06-30 19:43:00,
2013-06-30 14:53:00,75.0,59.0,29.92,North,360,10.0,-999.0,57,-99.99,,,-99.99,,2013-06-30 19:53:00,
2013-06-30 15:02:00,73.0,57.0,29.93,North,10,9.0,-999.0,56,-99.99,,,-99.99,,2013-06-30 20:02:00,
2013-06-30 15:11:00,73.0,57.0,29.93,North,10,7.0,-999.0,56,-99.99,,,-99.99,,2013-06-30 20:11:00,
2013-06-30 15:21:00,75.0,59.0,29.93,North,350,10.0,-999.0,57,-99.99,,,-99.99,,2013-06-30 20:21:00,
2013-06-30 15:34:00,75.0,59.0,29.93,NNW,340,9.0,-999.0,57,-99.99,,,-99.99,,2013-06-30 20:34:00,
2013-06-30 15:42:00,75.0,59.0,29.93,North,350,8.0,-999.0,57,-99.99,,,-99.99,,2013-06-30 20:42:00,
2013-06-30 15:52:00,75.0,59.0,29.93,North,350,10.0,-999.0,57,-99.99,,,-99.99,,2013-06-30 20:52:00,
2013-06-30 16:01:00,75.0,59.0,29.93,North,350,8.0,16.0,57,-99.99,,,-99.99,,2013-06-30 21:01:00,
2013-06-30 16:11:00,75.0,59.0,29.93,North,10,7.0,-999.0,57,-99.99,,,-99.99,,2013-06-30 21:11:00,
2013-06-30 16:22:00,75.0,59.0,29.93,North,350,7.0,-999.0,57,-99.99,,,-99.99,,2013-06-30 21:22:00,
2013-06-30 16:34:00,75.0,59.0,29.93,North,350,8.0,-999.0,57,-99.99,,,-99.99,,2013-06-30 21:34:00,
2013-06-30 16:43:00,77.0,57.0,29.93,North,350,14.0,21.0,50,-99.99,,,-99.99,,2013-06-30 21:43:00,
2013-06-30 16:53:00,75.0,55.0,29.93,NNE,20,6.0,16.0,50,-99.99,,,-99.99,,2013-06-30 21:53:00,
2013-06-30 17:01:00,75.0,55.0,29.93,North,10,6.0,-999.0,50,-99.99,,,-99.99,,2013-06-30 22:01:00,
2013-06-30 17:11:00,75.0,55.0,29.93,North,10,8.0,-999.0,50,-99.99,,,-99.99,,2013-06-30 22:11:00,
2013-06-30 17:21:00,75.0,55.0,29.93,North,350,7.0,-999.0,50,-99.99,,,-99.99,,2013-06-30 22:21:00,
2013-06-30 17:33:00,75.0,55.0,29.93,North,360,7.0,-999.0,50,-99.99,,,-99.99,,2013-06-30 22:33:00,
2013-06-30 17:43:00,75.0,57.0,29.93,NNE,20,6.0,-999.0,53,-99.99,,,-99.99,,2013-06-30 22:43:00,
2013-06-30 17:52:00,77.0,55.0,29.93,North,350,8.0,-999.0,47,-99.99,,,-99.99,,2013-06-30 22:52:00,
2013-06-30 18:11:00,77.0,55.0,29.93,North,360,7.0,-999.0,47,-99.99,,,-99.99,,2013-06-30 23:11:00,
2013-06-30 18:22:00,77.0,55.0,29.93,NNE,20,6.0,-999.0,47,-99.99,,,-99.99,,2013-06-30 23:22:00,
2013-06-30 18:33:00,77.0,55.0,29.93,North,10,10.0,16.0,47,-99.99,,,-99.99,,2013-06-30 23:33:00,
2013-06-30 18:43:00,77.0,55.0,29.93,North,350,6.0,16.0,47,-99.99,,,-99.99,,2013-06-30 23:43:00,
2013-06-30 19:01:00,77.0,55.0,29.93,North,10,6.0,-999.0,47,-99.99,,,-99.99,,2013-07-01 00:01:00,
2013-06-30 19:11:00,77.0,55.0,29.93,North,10,6.0,-999.0,47,-99.99,,,-99.99,,2013-07-01 00:11:00,
2013-06-30 19:22:00,75.0,55.0,29.93,North,360,8.0,-999.0,50,-99.99,,,-99.99,,2013-07-01 00:22:00,
2013-06-30 19:33:00,75.0,57.0,29.93,North,360,6.0,-999.0,53,-99.99,,,-99.99,,2013-07-01 00:33:00,
2013-06-30 19:42:00,75.0,57.0,29.94,NNW,340,6.0,-999.0,53,-99.99,,,-99.99,,2013-07-01 00:42:00,
2013-06-30 19:52:00,75.0,57.0,29.94,North,350,5.0,-999.0,53,-99.99,,,-99.99,,2013-07-01 00:52:00,
2013-06-30 20:01:00,75.0,59.0,29.94,North,350,5.0,-999.0,57,-99.99,,,-99.99,,2013-07-01 01:01:00,
2013-06-30 20:11:00,75.0,57.0,29.95,North,350,8.0,-999.0,53,-99.99,,,-99.99,,2013-07-01 01:11:00,
2013-06-30 20:22:00,75.0,57.0,29.96,North,10,9.0,-999.0,53,-99.99,,,-99.99,,2013-07-01 01:22:00,
2013-06-30 20:33:00,70.0,61.0,29.97,NNE,20,6.0,-999.0,73,0.04,,,-99.99,,2013-07-01 01:33:00,
2013-06-30 20:42:00,68.0,61.0,29.96,NNW,340,5.0,-999.0,77,0.05,,,-99.99,,2013-07-01 01:42:00,
2013-06-30 20:52:00,66.0,61.0,29.96,North,350,5.0,-999.0,82,0.06,,,-99.99,,2013-07-01 01:52:00,
2013-06-30 21:01:00,66.0,61.0,29.96,North,360,5.0,-999.0,82,0.06,,,-99.99,,2013-07-01 02:01:00,
2013-06-30 21:11:00,66.0,61.0,29.97,North,10,3.0,-999.0,82,0.06,,,-99.99,,2013-07-01 02:11:00,
2013-06-30 21:22:00,66.0,63.0,29.97,North,350,5.0,-999.0,88,0.06,,,-99.99,,2013-07-01 02:22:00,
2013-06-30 21:33:00,66.0,63.0,29.97,NNW,330,3.0,-999.0,88,-99.99,,,-99.99,,2013-07-01 02:33:00,
2013-06-30 21:43:00,66.0,63.0,29.97,North,0,0.0,-999.0,88,-99.99,,,-99.99,,2013-07-01 02:43:00,
2013-06-30 21:53:00,66.0,63.0,29.97,NW,310,3.0,-999.0,88,-99.99,,,-99.99,,2013-07-01 02:53:00,
2013-06-30 22:01:00,66.0,63.0,29.98,NNW,340,3.0,-999.0,88,-99.99,,,-99.99,,2013-07-01 03:01:00,
2013-06-30 22:11:00,66.0,63.0,29.98,North,0,0.0,-999.0,88,-99.99,,,-99.99,,2013-07-01 03:11:00,
2013-06-30 22:23:00,66.0,63.0,29.99,North,360,3.0,-999.0,88,-99.99,,,-99.99,,2013-07-01 03:23:00,
2013-06-30 22:33:00,66.0,63.0,29.99,North,0,0.0,-999.0,88,-99.99,,,-99.99,,2013-07-01 03:33:00,
2013-06-30 22:43:00,68.0,61.0,29.99,North,0,0.0,-999.0,77,-99.99,,,-99.99,,2013-07-01 03:43:00,
2013-06-30 22:52:00,66.0,63.0,29.99,North,360,3.0,-999.0,88,-99.99,,,-99.99,,2013-07-01 03:52:00,
2013-06-30 23:01:00,66.0,63.0,29.99,North,0,0.0,-999.0,88,-99.99,,,-99.99,,2013-07-01 04:01:00,
2013-06-30 23:11:00,66.0,63.0,29.99,NNW,340,3.0,-999.0,88,-99.99,,,-99.99,,2013-07-01 04:11:00,
2013-06-30 23:22:00,66.0,63.0,29.99,North,360,3.0,-999.0,88,-99.99,,,-99.99,,2013-07-01 04:22:00,
2013-06-30 23:32:00,66.0,63.0,29.99,North,360,3.0,-999.0,88,-99.99,,,-99.99,,2013-07-01 04:32:00,
2013-06-30 23:42:00,68.0,63.0,30.00,North,350,3.0,-999.0,82,-99.99,,,-99.99,,2013-07-01 04:42:00,
2013-06-30 23:52:00,68.0,63.0,30.00,NNW,340,3.0,-999.0,82,-99.99,,,-99.99,,2013-07-01 04:52:00,